sensor_id;sensor_type;location;lat;lon;timestamp;P1;durP1;ratioP1;P2;durP2;ratioP2
73776;SDS011;62088;50.240;2.696;2024-03-07T00:00:10;10.40;;;5.78;;
73776;SDS011;62088;50.240;2.696;2024-03-07T00:02:45;9.52;;;4.88;;
73776;SDS011;62088;50.240;2.696;2024-03-07T00:05:18;10.57;;;5.35;;
73776;SDS011;62088;50.240;2.696;2024-03-07T00:07:48;7.50;;;4.35;;
73776;SDS011;62088;50.240;2.696;2024-03-07T00:10:15;8.07;;;4.47;;
73776;SDS011;62088;50.240;2.696;2024-03-07T00:12:43;8.77;;;4.88;;
73776;SDS011;62088;50.240;2.696;2024-03-07T00:15:11;7.80;;;4.93;;
73776;SDS011;62088;50.240;2.696;2024-03-07T00:17:39;8.43;;;4.78;;
73776;SDS011;62088;50.240;2.696;2024-03-07T00:20:07;9.18;;;5.18;;
73776;SDS011;62088;50.240;2.696;2024-03-07T00:22:36;10.05;;;4.78;;
73776;SDS011;62088;50.240;2.696;2024-03-07T00:25:04;6.80;;;4.18;;
73776;SDS011;62088;50.240;2.696;2024-03-07T00:27:32;8.38;;;5.18;;
73776;SDS011;62088;50.240;2.696;2024-03-07T00:29:59;7.22;;;4.43;;
73776;SDS011;62088;50.240;2.696;2024-03-07T00:32:27;8.40;;;5.22;;
73776;SDS011;62088;50.240;2.696;2024-03-07T00:34:56;12.48;;;5.32;;
73776;SDS011;62088;50.240;2.696;2024-03-07T00:37:24;10.13;;;5.20;;
73776;SDS011;62088;50.240;2.696;2024-03-07T00:39:53;8.02;;;4.40;;
73776;SDS011;62088;50.240;2.696;2024-03-07T00:42:20;9.00;;;4.57;;
73776;SDS011;62088;50.240;2.696;2024-03-07T00:44:48;9.38;;;5.10;;
73776;SDS011;62088;50.240;2.696;2024-03-07T00:47:16;10.30;;;5.03;;
73776;SDS011;62088;50.240;2.696;2024-03-07T00:49:44;10.20;;;4.75;;
73776;SDS011;62088;50.240;2.696;2024-03-07T00:52:13;8.15;;;4.63;;
73776;SDS011;62088;50.240;2.696;2024-03-07T00:54:40;7.35;;;4.05;;
73776;SDS011;62088;50.240;2.696;2024-03-07T00:57:07;7.88;;;4.65;;
73776;SDS011;62088;50.240;2.696;2024-03-07T00:59:35;7.95;;;4.88;;
73776;SDS011;62088;50.240;2.696;2024-03-07T01:02:02;9.68;;;4.97;;
73776;SDS011;62088;50.240;2.696;2024-03-07T01:04:30;9.90;;;5.28;;
73776;SDS011;62088;50.240;2.696;2024-03-07T01:06:57;10.32;;;6.03;;
73776;SDS011;62088;50.240;2.696;2024-03-07T01:09:25;9.02;;;5.00;;
73776;SDS011;62088;50.240;2.696;2024-03-07T01:11:54;12.13;;;5.07;;
73776;SDS011;62088;50.240;2.696;2024-03-07T01:14:22;9.60;;;4.93;;
73776;SDS011;62088;50.240;2.696;2024-03-07T01:16:50;7.20;;;4.47;;
73776;SDS011;62088;50.240;2.696;2024-03-07T01:19:17;10.27;;;5.07;;
73776;SDS011;62088;50.240;2.696;2024-03-07T01:21:44;10.07;;;5.20;;
73776;SDS011;62088;50.240;2.696;2024-03-07T01:24:11;8.57;;;4.80;;
73776;SDS011;62088;50.240;2.696;2024-03-07T01:26:38;8.50;;;5.07;;
73776;SDS011;62088;50.240;2.696;2024-03-07T01:29:05;9.25;;;5.30;;
73776;SDS011;62088;50.240;2.696;2024-03-07T01:31:34;9.15;;;5.30;;
73776;SDS011;62088;50.240;2.696;2024-03-07T01:34:01;8.52;;;5.20;;
73776;SDS011;62088;50.240;2.696;2024-03-07T01:36:28;8.30;;;4.60;;
73776;SDS011;62088;50.240;2.696;2024-03-07T01:38:55;8.40;;;4.72;;
73776;SDS011;62088;50.240;2.696;2024-03-07T01:41:22;7.32;;;4.00;;
73776;SDS011;62088;50.240;2.696;2024-03-07T01:43:49;10.95;;;5.47;;
73776;SDS011;62088;50.240;2.696;2024-03-07T01:46:17;9.48;;;4.47;;
73776;SDS011;62088;50.240;2.696;2024-03-07T01:48:45;7.55;;;4.38;;
73776;SDS011;62088;50.240;2.696;2024-03-07T01:51:14;9.27;;;5.88;;
73776;SDS011;62088;50.240;2.696;2024-03-07T01:53:42;7.50;;;4.50;;
73776;SDS011;62088;50.240;2.696;2024-03-07T01:56:09;9.85;;;5.18;;
73776;SDS011;62088;50.240;2.696;2024-03-07T01:58:37;7.75;;;3.85;;
73776;SDS011;62088;50.240;2.696;2024-03-07T02:01:04;8.32;;;5.25;;
73776;SDS011;62088;50.240;2.696;2024-03-07T02:03:32;8.38;;;4.50;;
73776;SDS011;62088;50.240;2.696;2024-03-07T02:05:59;8.95;;;5.22;;
73776;SDS011;62088;50.240;2.696;2024-03-07T02:08:27;10.05;;;5.50;;
73776;SDS011;62088;50.240;2.696;2024-03-07T02:10:54;8.13;;;4.78;;
73776;SDS011;62088;50.240;2.696;2024-03-07T02:13:22;10.88;;;5.15;;
73776;SDS011;62088;50.240;2.696;2024-03-07T02:15:49;8.60;;;5.45;;
73776;SDS011;62088;50.240;2.696;2024-03-07T02:18:16;8.68;;;4.55;;
73776;SDS011;62088;50.240;2.696;2024-03-07T02:20:44;10.32;;;5.97;;
73776;SDS011;62088;50.240;2.696;2024-03-07T02:23:12;8.65;;;4.65;;
73776;SDS011;62088;50.240;2.696;2024-03-07T02:25:39;20.50;;;4.65;;
73776;SDS011;62088;50.240;2.696;2024-03-07T02:28:07;9.93;;;5.88;;
73776;SDS011;62088;50.240;2.696;2024-03-07T02:30:34;8.60;;;4.95;;
73776;SDS011;62088;50.240;2.696;2024-03-07T02:33:01;13.32;;;5.82;;
73776;SDS011;62088;50.240;2.696;2024-03-07T02:35:33;9.18;;;5.43;;
73776;SDS011;62088;50.240;2.696;2024-03-07T02:38:04;8.88;;;4.43;;
73776;SDS011;62088;50.240;2.696;2024-03-07T02:40:35;7.90;;;4.55;;
73776;SDS011;62088;50.240;2.696;2024-03-07T02:43:02;8.25;;;5.18;;
73776;SDS011;62088;50.240;2.696;2024-03-07T02:45:33;7.72;;;4.47;;
73776;SDS011;62088;50.240;2.696;2024-03-07T02:48:00;6.63;;;4.35;;
73776;SDS011;62088;50.240;2.696;2024-03-07T02:50:28;7.00;;;4.07;;
73776;SDS011;62088;50.240;2.696;2024-03-07T02:52:55;7.32;;;4.10;;
73776;SDS011;62088;50.240;2.696;2024-03-07T02:55:22;7.38;;;4.57;;
73776;SDS011;62088;50.240;2.696;2024-03-07T02:57:49;7.28;;;4.43;;
73776;SDS011;62088;50.240;2.696;2024-03-07T03:00:17;8.80;;;4.40;;
73776;SDS011;62088;50.240;2.696;2024-03-07T03:02:50;8.90;;;4.53;;
73776;SDS011;62088;50.240;2.696;2024-03-07T03:05:17;6.90;;;4.45;;
73776;SDS011;62088;50.240;2.696;2024-03-07T03:07:45;7.97;;;4.53;;
73776;SDS011;62088;50.240;2.696;2024-03-07T03:12:54;8.52;;;4.78;;
73776;SDS011;62088;50.240;2.696;2024-03-07T03:15:22;11.18;;;4.53;;
73776;SDS011;62088;50.240;2.696;2024-03-07T03:17:49;7.53;;;4.65;;
73776;SDS011;62088;50.240;2.696;2024-03-07T03:20:18;7.47;;;4.32;;
73776;SDS011;62088;50.240;2.696;2024-03-07T03:22:52;7.15;;;4.88;;
73776;SDS011;62088;50.240;2.696;2024-03-07T03:25:40;7.03;;;4.38;;
73776;SDS011;62088;50.240;2.696;2024-03-07T03:28:08;8.55;;;4.78;;
73776;SDS011;62088;50.240;2.696;2024-03-07T03:30:39;7.63;;;4.65;;
73776;SDS011;62088;50.240;2.696;2024-03-07T03:33:08;9.05;;;4.60;;
73776;SDS011;62088;50.240;2.696;2024-03-07T03:35:39;9.90;;;4.07;;
73776;SDS011;62088;50.240;2.696;2024-03-07T03:38:07;8.05;;;4.60;;
73776;SDS011;62088;50.240;2.696;2024-03-07T03:40:34;8.95;;;4.88;;
73776;SDS011;62088;50.240;2.696;2024-03-07T03:43:02;9.68;;;4.65;;
73776;SDS011;62088;50.240;2.696;2024-03-07T03:45:30;7.10;;;4.25;;
73776;SDS011;62088;50.240;2.696;2024-03-07T03:48:00;7.97;;;4.32;;
73776;SDS011;62088;50.240;2.696;2024-03-07T03:50:28;8.85;;;4.80;;
73776;SDS011;62088;50.240;2.696;2024-03-07T03:52:55;8.95;;;5.05;;
73776;SDS011;62088;50.240;2.696;2024-03-07T03:55:24;7.85;;;4.15;;
73776;SDS011;62088;50.240;2.696;2024-03-07T03:57:51;7.82;;;5.20;;
73776;SDS011;62088;50.240;2.696;2024-03-07T04:00:20;8.45;;;4.07;;
73776;SDS011;62088;50.240;2.696;2024-03-07T04:02:49;7.25;;;4.10;;
73776;SDS011;62088;50.240;2.696;2024-03-07T04:05:19;8.25;;;4.32;;
73776;SDS011;62088;50.240;2.696;2024-03-07T04:07:47;7.65;;;4.22;;
73776;SDS011;62088;50.240;2.696;2024-03-07T04:10:15;9.07;;;4.28;;
73776;SDS011;62088;50.240;2.696;2024-03-07T04:12:43;9.88;;;4.60;;
73776;SDS011;62088;50.240;2.696;2024-03-07T04:15:12;10.30;;;4.97;;
73776;SDS011;62088;50.240;2.696;2024-03-07T04:17:45;9.23;;;5.28;;
73776;SDS011;62088;50.240;2.696;2024-03-07T04:20:13;8.10;;;4.47;;
73776;SDS011;62088;50.240;2.696;2024-03-07T04:22:45;8.25;;;5.40;;
73776;SDS011;62088;50.240;2.696;2024-03-07T04:25:12;11.45;;;6.22;;
73776;SDS011;62088;50.240;2.696;2024-03-07T04:27:39;8.48;;;4.90;;
73776;SDS011;62088;50.240;2.696;2024-03-07T04:30:07;8.88;;;5.70;;
73776;SDS011;62088;50.240;2.696;2024-03-07T04:32:39;12.63;;;6.13;;
73776;SDS011;62088;50.240;2.696;2024-03-07T04:35:09;12.75;;;6.13;;
73776;SDS011;62088;50.240;2.696;2024-03-07T04:37:40;16.10;;;6.60;;
73776;SDS011;62088;50.240;2.696;2024-03-07T04:40:08;12.82;;;6.55;;
73776;SDS011;62088;50.240;2.696;2024-03-07T04:42:44;10.55;;;6.68;;
73776;SDS011;62088;50.240;2.696;2024-03-07T04:45:16;10.52;;;7.07;;
73776;SDS011;62088;50.240;2.696;2024-03-07T04:47:45;10.90;;;6.57;;
73776;SDS011;62088;50.240;2.696;2024-03-07T04:50:14;11.05;;;6.88;;
73776;SDS011;62088;50.240;2.696;2024-03-07T04:52:45;10.02;;;6.47;;
73776;SDS011;62088;50.240;2.696;2024-03-07T04:55:14;10.75;;;6.13;;
73776;SDS011;62088;50.240;2.696;2024-03-07T04:57:42;10.35;;;7.05;;
73776;SDS011;62088;50.240;2.696;2024-03-07T05:00:12;11.95;;;6.25;;
73776;SDS011;62088;50.240;2.696;2024-03-07T05:02:42;11.32;;;6.70;;
73776;SDS011;62088;50.240;2.696;2024-03-07T05:05:10;11.18;;;6.05;;
73776;SDS011;62088;50.240;2.696;2024-03-07T05:07:40;8.35;;;5.07;;
73776;SDS011;62088;50.240;2.696;2024-03-07T05:10:07;8.90;;;5.57;;
73776;SDS011;62088;50.240;2.696;2024-03-07T05:12:35;10.25;;;4.97;;
73776;SDS011;62088;50.240;2.696;2024-03-07T05:15:04;9.60;;;5.68;;
73776;SDS011;62088;50.240;2.696;2024-03-07T05:17:32;9.13;;;5.70;;
73776;SDS011;62088;50.240;2.696;2024-03-07T05:20:02;9.25;;;5.22;;
73776;SDS011;62088;50.240;2.696;2024-03-07T05:22:30;9.18;;;4.97;;
73776;SDS011;62088;50.240;2.696;2024-03-07T05:24:57;7.40;;;4.53;;
73776;SDS011;62088;50.240;2.696;2024-03-07T05:27:25;8.68;;;4.38;;
73776;SDS011;62088;50.240;2.696;2024-03-07T05:29:54;9.25;;;4.90;;
73776;SDS011;62088;50.240;2.696;2024-03-07T05:32:25;9.18;;;5.07;;
73776;SDS011;62088;50.240;2.696;2024-03-07T05:34:54;10.15;;;5.90;;
73776;SDS011;62088;50.240;2.696;2024-03-07T05:37:21;7.72;;;4.90;;
73776;SDS011;62088;50.240;2.696;2024-03-07T05:39:50;7.78;;;4.65;;
73776;SDS011;62088;50.240;2.696;2024-03-07T05:42:18;9.20;;;5.20;;
73776;SDS011;62088;50.240;2.696;2024-03-07T05:44:46;7.57;;;4.78;;
73776;SDS011;62088;50.240;2.696;2024-03-07T05:47:13;7.20;;;4.57;;
73776;SDS011;62088;50.240;2.696;2024-03-07T05:49:41;7.47;;;4.20;;
73776;SDS011;62088;50.240;2.696;2024-03-07T05:52:08;10.80;;;4.47;;
73776;SDS011;62088;50.240;2.696;2024-03-07T05:54:35;12.13;;;5.40;;
73776;SDS011;62088;50.240;2.696;2024-03-07T05:57:02;10.07;;;5.72;;
73776;SDS011;62088;50.240;2.696;2024-03-07T05:59:32;7.85;;;5.10;;
73776;SDS011;62088;50.240;2.696;2024-03-07T06:01:59;7.95;;;4.60;;
73776;SDS011;62088;50.240;2.696;2024-03-07T06:04:27;9.23;;;5.18;;
73776;SDS011;62088;50.240;2.696;2024-03-07T06:06:55;20.27;;;4.90;;
73776;SDS011;62088;50.240;2.696;2024-03-07T06:09:22;13.20;;;5.13;;
73776;SDS011;62088;50.240;2.696;2024-03-07T06:11:50;11.30;;;6.05;;
73776;SDS011;62088;50.240;2.696;2024-03-07T06:14:17;9.30;;;5.88;;
73776;SDS011;62088;50.240;2.696;2024-03-07T06:16:46;9.55;;;5.53;;
73776;SDS011;62088;50.240;2.696;2024-03-07T06:19:13;9.43;;;5.55;;
73776;SDS011;62088;50.240;2.696;2024-03-07T06:21:40;10.88;;;5.78;;
73776;SDS011;62088;50.240;2.696;2024-03-07T06:24:08;10.23;;;5.47;;
73776;SDS011;62088;50.240;2.696;2024-03-07T06:26:38;8.25;;;4.93;;
73776;SDS011;62088;50.240;2.696;2024-03-07T06:29:13;14.80;;;5.88;;
73776;SDS011;62088;50.240;2.696;2024-03-07T06:31:45;9.52;;;5.43;;
73776;SDS011;62088;50.240;2.696;2024-03-07T06:34:13;10.60;;;5.28;;
73776;SDS011;62088;50.240;2.696;2024-03-07T06:36:40;12.20;;;6.15;;
73776;SDS011;62088;50.240;2.696;2024-03-07T06:39:07;11.52;;;6.30;;
73776;SDS011;62088;50.240;2.696;2024-03-07T06:41:37;10.73;;;6.22;;
73776;SDS011;62088;50.240;2.696;2024-03-07T06:44:05;10.93;;;5.72;;
73776;SDS011;62088;50.240;2.696;2024-03-07T06:46:34;8.57;;;5.88;;
73776;SDS011;62088;50.240;2.696;2024-03-07T06:49:01;21.92;;;6.05;;
73776;SDS011;62088;50.240;2.696;2024-03-07T06:51:28;11.90;;;4.82;;
73776;SDS011;62088;50.240;2.696;2024-03-07T06:53:55;8.60;;;5.00;;
73776;SDS011;62088;50.240;2.696;2024-03-07T06:56:23;8.75;;;5.35;;
73776;SDS011;62088;50.240;2.696;2024-03-07T06:58:51;9.63;;;6.43;;
73776;SDS011;62088;50.240;2.696;2024-03-07T07:01:18;21.42;;;5.68;;
73776;SDS011;62088;50.240;2.696;2024-03-07T07:03:48;9.55;;;5.80;;
73776;SDS011;62088;50.240;2.696;2024-03-07T07:06:15;10.13;;;6.25;;
73776;SDS011;62088;50.240;2.696;2024-03-07T07:08:43;9.30;;;5.88;;
73776;SDS011;62088;50.240;2.696;2024-03-07T07:11:12;10.85;;;6.47;;
73776;SDS011;62088;50.240;2.696;2024-03-07T07:13:39;11.63;;;6.43;;
73776;SDS011;62088;50.240;2.696;2024-03-07T07:16:08;13.55;;;7.30;;
73776;SDS011;62088;50.240;2.696;2024-03-07T07:18:36;12.73;;;6.65;;
73776;SDS011;62088;50.240;2.696;2024-03-07T07:21:05;10.10;;;6.78;;
73776;SDS011;62088;50.240;2.696;2024-03-07T07:23:37;18.60;;;10.13;;
73776;SDS011;62088;50.240;2.696;2024-03-07T07:26:05;24.10;;;14.50;;
73776;SDS011;62088;50.240;2.696;2024-03-07T07:28:32;22.88;;;13.85;;
73776;SDS011;62088;50.240;2.696;2024-03-07T07:30:59;31.13;;;11.05;;
73776;SDS011;62088;50.240;2.696;2024-03-07T07:33:26;18.88;;;10.38;;
73776;SDS011;62088;50.240;2.696;2024-03-07T07:35:54;15.80;;;9.77;;
73776;SDS011;62088;50.240;2.696;2024-03-07T07:38:21;17.92;;;9.85;;
73776;SDS011;62088;50.240;2.696;2024-03-07T07:40:48;22.55;;;11.15;;
73776;SDS011;62088;50.240;2.696;2024-03-07T07:43:16;17.40;;;8.93;;
73776;SDS011;62088;50.240;2.696;2024-03-07T07:45:58;16.17;;;10.10;;
73776;SDS011;62088;50.240;2.696;2024-03-07T07:48:27;18.23;;;11.20;;
73776;SDS011;62088;50.240;2.696;2024-03-07T07:50:56;19.38;;;11.60;;
73776;SDS011;62088;50.240;2.696;2024-03-07T07:53:23;21.00;;;12.23;;
73776;SDS011;62088;50.240;2.696;2024-03-07T07:55:51;31.85;;;12.60;;
73776;SDS011;62088;50.240;2.696;2024-03-07T07:58:18;20.58;;;11.77;;
73776;SDS011;62088;50.240;2.696;2024-03-07T08:00:45;28.40;;;13.85;;
73776;SDS011;62088;50.240;2.696;2024-03-07T08:03:13;25.33;;;14.05;;
73776;SDS011;62088;50.240;2.696;2024-03-07T08:05:42;29.27;;;14.45;;
73776;SDS011;62088;50.240;2.696;2024-03-07T08:08:10;20.15;;;12.15;;
73776;SDS011;62088;50.240;2.696;2024-03-07T08:10:40;29.85;;;14.52;;
73776;SDS011;62088;50.240;2.696;2024-03-07T08:13:13;31.92;;;15.07;;
73776;SDS011;62088;50.240;2.696;2024-03-07T08:15:40;28.42;;;15.30;;
73776;SDS011;62088;50.240;2.696;2024-03-07T08:18:08;33.80;;;18.20;;
73776;SDS011;62088;50.240;2.696;2024-03-07T08:20:37;38.13;;;19.55;;
73776;SDS011;62088;50.240;2.696;2024-03-07T08:23:06;36.45;;;17.88;;
73776;SDS011;62088;50.240;2.696;2024-03-07T08:25:33;60.25;;;26.10;;
73776;SDS011;62088;50.240;2.696;2024-03-07T08:28:01;52.60;;;24.90;;
73776;SDS011;62088;50.240;2.696;2024-03-07T08:30:28;50.20;;;25.35;;
73776;SDS011;62088;50.240;2.696;2024-03-07T08:32:56;36.13;;;19.90;;
73776;SDS011;62088;50.240;2.696;2024-03-07T08:35:25;39.40;;;20.13;;
73776;SDS011;62088;50.240;2.696;2024-03-07T08:37:53;53.50;;;24.52;;
73776;SDS011;62088;50.240;2.696;2024-03-07T08:40:22;58.42;;;27.30;;
73776;SDS011;62088;50.240;2.696;2024-03-07T08:42:55;57.42;;;25.75;;
73776;SDS011;62088;50.240;2.696;2024-03-07T08:45:24;63.63;;;30.75;;
73776;SDS011;62088;50.240;2.696;2024-03-07T08:47:52;46.47;;;23.60;;
73776;SDS011;62088;50.240;2.696;2024-03-07T08:50:22;41.80;;;24.25;;
73776;SDS011;62088;50.240;2.696;2024-03-07T08:52:50;46.65;;;22.58;;
73776;SDS011;62088;50.240;2.696;2024-03-07T08:55:21;38.00;;;21.40;;
73776;SDS011;62088;50.240;2.696;2024-03-07T08:57:51;47.80;;;22.55;;
73776;SDS011;62088;50.240;2.696;2024-03-07T09:00:19;45.15;;;22.65;;
73776;SDS011;62088;50.240;2.696;2024-03-07T09:02:55;44.20;;;22.63;;
73776;SDS011;62088;50.240;2.696;2024-03-07T09:05:30;47.10;;;23.65;;
73776;SDS011;62088;50.240;2.696;2024-03-07T09:08:01;45.67;;;24.67;;
73776;SDS011;62088;50.240;2.696;2024-03-07T09:10:30;46.88;;;22.70;;
73776;SDS011;62088;50.240;2.696;2024-03-07T09:12:57;57.90;;;27.50;;
73776;SDS011;62088;50.240;2.696;2024-03-07T09:15:25;49.78;;;24.75;;
73776;SDS011;62088;50.240;2.696;2024-03-07T09:17:53;54.05;;;26.70;;
73776;SDS011;62088;50.240;2.696;2024-03-07T09:20:21;52.90;;;26.25;;
73776;SDS011;62088;50.240;2.696;2024-03-07T09:22:50;44.97;;;25.80;;
73776;SDS011;62088;50.240;2.696;2024-03-07T09:25:21;47.70;;;23.52;;
73776;SDS011;62088;50.240;2.696;2024-03-07T09:27:48;56.85;;;25.92;;
73776;SDS011;62088;50.240;2.696;2024-03-07T09:30:15;56.15;;;28.45;;
73776;SDS011;62088;50.240;2.696;2024-03-07T09:32:46;54.72;;;26.65;;
73776;SDS011;62088;50.240;2.696;2024-03-07T09:35:13;55.20;;;26.55;;
73776;SDS011;62088;50.240;2.696;2024-03-07T09:37:42;57.58;;;26.50;;
73776;SDS011;62088;50.240;2.696;2024-03-07T09:40:10;48.45;;;25.45;;
73776;SDS011;62088;50.240;2.696;2024-03-07T09:42:45;55.22;;;26.17;;
73776;SDS011;62088;50.240;2.696;2024-03-07T09:45:19;61.95;;;28.90;;
73776;SDS011;62088;50.240;2.696;2024-03-07T09:47:50;64.47;;;28.45;;
73776;SDS011;62088;50.240;2.696;2024-03-07T09:50:20;51.58;;;26.17;;
73776;SDS011;62088;50.240;2.696;2024-03-07T09:52:50;49.97;;;25.88;;
73776;SDS011;62088;50.240;2.696;2024-03-07T09:55:20;65.78;;;29.80;;
73776;SDS011;62088;50.240;2.696;2024-03-07T09:57:48;61.42;;;28.05;;
73776;SDS011;62088;50.240;2.696;2024-03-07T10:00:17;57.70;;;28.75;;
73776;SDS011;62088;50.240;2.696;2024-03-07T10:02:59;54.42;;;28.42;;
73776;SDS011;62088;50.240;2.696;2024-03-07T10:05:32;62.03;;;30.48;;
73776;SDS011;62088;50.240;2.696;2024-03-07T10:08:00;64.13;;;31.33;;
73776;SDS011;62088;50.240;2.696;2024-03-07T10:10:28;60.97;;;30.33;;
73776;SDS011;62088;50.240;2.696;2024-03-07T10:12:57;59.90;;;27.95;;
73776;SDS011;62088;50.240;2.696;2024-03-07T10:15:29;62.65;;;27.80;;
73776;SDS011;62088;50.240;2.696;2024-03-07T10:17:59;58.00;;;30.95;;
73776;SDS011;62088;50.240;2.696;2024-03-07T10:20:28;47.38;;;27.10;;
73776;SDS011;62088;50.240;2.696;2024-03-07T10:22:56;56.70;;;29.80;;
73776;SDS011;62088;50.240;2.696;2024-03-07T10:25:24;57.95;;;30.20;;
73776;SDS011;62088;50.240;2.696;2024-03-07T10:27:53;45.63;;;27.10;;
73776;SDS011;62088;50.240;2.696;2024-03-07T10:30:21;51.45;;;26.63;;
73776;SDS011;62088;50.240;2.696;2024-03-07T10:32:56;45.50;;;25.60;;
73776;SDS011;62088;50.240;2.696;2024-03-07T10:35:27;51.33;;;27.17;;
73776;SDS011;62088;50.240;2.696;2024-03-07T10:37:57;51.47;;;27.60;;
73776;SDS011;62088;50.240;2.696;2024-03-07T10:40:33;48.22;;;26.05;;
73776;SDS011;62088;50.240;2.696;2024-03-07T10:43:09;47.30;;;24.80;;
73776;SDS011;62088;50.240;2.696;2024-03-07T10:45:45;48.97;;;26.58;;
73776;SDS011;62088;50.240;2.696;2024-03-07T10:48:19;53.15;;;27.50;;
73776;SDS011;62088;50.240;2.696;2024-03-07T10:50:52;47.30;;;27.23;;
73776;SDS011;62088;50.240;2.696;2024-03-07T10:53:35;44.05;;;24.73;;
73776;SDS011;62088;50.240;2.696;2024-03-07T10:59:00;45.97;;;24.52;;
73776;SDS011;62088;50.240;2.696;2024-03-07T11:01:31;42.47;;;24.25;;
73776;SDS011;62088;50.240;2.696;2024-03-07T11:04:00;37.78;;;23.75;;
73776;SDS011;62088;50.240;2.696;2024-03-07T11:06:32;40.92;;;23.55;;
73776;SDS011;62088;50.240;2.696;2024-03-07T11:09:00;44.47;;;25.85;;
73776;SDS011;62088;50.240;2.696;2024-03-07T11:11:40;39.90;;;22.63;;
73776;SDS011;62088;50.240;2.696;2024-03-07T11:14:08;40.92;;;21.58;;
73776;SDS011;62088;50.240;2.696;2024-03-07T11:16:38;42.65;;;23.73;;
73776;SDS011;62088;50.240;2.696;2024-03-07T11:19:20;41.22;;;26.25;;
73776;SDS011;62088;50.240;2.696;2024-03-07T11:21:55;39.53;;;22.10;;
73776;SDS011;62088;50.240;2.696;2024-03-07T11:24:26;34.33;;;23.35;;
73776;SDS011;62088;50.240;2.696;2024-03-07T11:27:03;40.35;;;23.42;;
73776;SDS011;62088;50.240;2.696;2024-03-07T11:29:49;34.88;;;20.23;;
73776;SDS011;62088;50.240;2.696;2024-03-07T11:32:21;35.58;;;22.17;;
73776;SDS011;62088;50.240;2.696;2024-03-07T11:34:50;33.08;;;19.50;;
73776;SDS011;62088;50.240;2.696;2024-03-07T11:37:37;34.97;;;20.95;;
73776;SDS011;62088;50.240;2.696;2024-03-07T11:40:42;31.80;;;21.88;;
73776;SDS011;62088;50.240;2.696;2024-03-07T11:43:00;33.47;;;20.27;;
73776;SDS011;62088;50.240;2.696;2024-03-07T11:45:31;31.55;;;20.48;;
73776;SDS011;62088;50.240;2.696;2024-03-07T11:48:19;35.75;;;20.25;;
73776;SDS011;62088;50.240;2.696;2024-03-07T11:50:48;35.70;;;20.45;;
73776;SDS011;62088;50.240;2.696;2024-03-07T11:53:15;34.92;;;20.55;;
73776;SDS011;62088;50.240;2.696;2024-03-07T11:55:43;36.88;;;18.85;;
73776;SDS011;62088;50.240;2.696;2024-03-07T11:58:18;36.92;;;24.38;;
73776;SDS011;62088;50.240;2.696;2024-03-07T12:00:50;31.23;;;18.77;;
73776;SDS011;62088;50.240;2.696;2024-03-07T12:03:18;33.88;;;24.80;;
73776;SDS011;62088;50.240;2.696;2024-03-07T12:05:52;35.65;;;24.15;;
73776;SDS011;62088;50.240;2.696;2024-03-07T12:08:20;32.10;;;19.50;;
73776;SDS011;62088;50.240;2.696;2024-03-07T12:10:52;33.75;;;20.60;;
73776;SDS011;62088;50.240;2.696;2024-03-07T12:13:25;32.05;;;19.48;;
73776;SDS011;62088;50.240;2.696;2024-03-07T12:15:54;35.70;;;24.55;;
73776;SDS011;62088;50.240;2.696;2024-03-07T12:18:22;31.67;;;18.58;;
73776;SDS011;62088;50.240;2.696;2024-03-07T12:20:51;34.75;;;20.80;;
73776;SDS011;62088;50.240;2.696;2024-03-07T12:23:22;31.20;;;23.00;;
73776;SDS011;62088;50.240;2.696;2024-03-07T12:26:02;30.88;;;23.48;;
73776;SDS011;62088;50.240;2.696;2024-03-07T12:28:30;28.38;;;18.88;;
73776;SDS011;62088;50.240;2.696;2024-03-07T12:31:02;25.38;;;17.27;;
73776;SDS011;62088;50.240;2.696;2024-03-07T12:33:30;28.60;;;16.65;;
73776;SDS011;62088;50.240;2.696;2024-03-07T12:36:06;30.05;;;21.83;;
73776;SDS011;62088;50.240;2.696;2024-03-07T12:38:34;28.98;;;21.48;;
73776;SDS011;62088;50.240;2.696;2024-03-07T12:41:04;26.65;;;17.45;;
73776;SDS011;62088;50.240;2.696;2024-03-07T12:43:33;29.17;;;17.25;;
73776;SDS011;62088;50.240;2.696;2024-03-07T12:46:01;25.23;;;15.85;;
73776;SDS011;62088;50.240;2.696;2024-03-07T12:48:31;27.80;;;19.70;;
73776;SDS011;62088;50.240;2.696;2024-03-07T12:50:58;26.55;;;18.75;;
73776;SDS011;62088;50.240;2.696;2024-03-07T12:53:28;32.17;;;20.73;;
73776;SDS011;62088;50.240;2.696;2024-03-07T12:55:57;31.60;;;19.83;;
73776;SDS011;62088;50.240;2.696;2024-03-07T12:58:24;32.28;;;25.52;;
73776;SDS011;62088;50.240;2.696;2024-03-07T13:00:53;41.97;;;31.80;;
73776;SDS011;62088;50.240;2.696;2024-03-07T13:03:24;36.58;;;25.17;;
73776;SDS011;62088;50.240;2.696;2024-03-07T13:05:57;33.85;;;21.10;;
73776;SDS011;62088;50.240;2.696;2024-03-07T13:08:29;40.72;;;26.00;;
73776;SDS011;62088;50.240;2.696;2024-03-07T13:10:56;35.53;;;26.25;;
73776;SDS011;62088;50.240;2.696;2024-03-07T13:13:27;33.35;;;21.48;;
73776;SDS011;62088;50.240;2.696;2024-03-07T13:15:54;37.08;;;24.02;;
73776;SDS011;62088;50.240;2.696;2024-03-07T13:18:22;29.15;;;18.85;;
73776;SDS011;62088;50.240;2.696;2024-03-07T13:20:50;33.72;;;19.88;;
73776;SDS011;62088;50.240;2.696;2024-03-07T13:23:17;33.78;;;24.55;;
73776;SDS011;62088;50.240;2.696;2024-03-07T13:25:44;33.25;;;24.70;;
73776;SDS011;62088;50.240;2.696;2024-03-07T13:28:12;36.40;;;18.50;;
73776;SDS011;62088;50.240;2.696;2024-03-07T13:30:43;36.88;;;25.25;;
73776;SDS011;62088;50.240;2.696;2024-03-07T13:33:16;34.45;;;19.60;;
73776;SDS011;62088;50.240;2.696;2024-03-07T13:35:43;33.45;;;18.15;;
73776;SDS011;62088;50.240;2.696;2024-03-07T13:38:11;27.67;;;17.58;;
73776;SDS011;62088;50.240;2.696;2024-03-07T13:40:39;26.95;;;17.35;;
73776;SDS011;62088;50.240;2.696;2024-03-07T13:43:07;35.75;;;26.15;;
73776;SDS011;62088;50.240;2.696;2024-03-07T13:45:35;35.67;;;26.10;;
73776;SDS011;62088;50.240;2.696;2024-03-07T13:48:06;35.47;;;26.15;;
73776;SDS011;62088;50.240;2.696;2024-03-07T13:50:37;30.88;;;22.98;;
73776;SDS011;62088;50.240;2.696;2024-03-07T13:53:23;33.15;;;24.52;;
73776;SDS011;62088;50.240;2.696;2024-03-07T13:58:37;33.50;;;23.05;;
73776;SDS011;62088;50.240;2.696;2024-03-07T14:17:58;33.00;;;22.90;;
73776;SDS011;62088;50.240;2.696;2024-03-07T14:20:50;33.00;;;22.73;;
73776;SDS011;62088;50.240;2.696;2024-03-07T14:29:02;34.78;;;22.52;;
73776;SDS011;62088;50.240;2.696;2024-03-07T14:31:41;29.83;;;21.08;;
73776;SDS011;62088;50.240;2.696;2024-03-07T14:34:33;34.23;;;20.20;;
73776;SDS011;62088;50.240;2.696;2024-03-07T14:37:29;28.73;;;20.02;;
73776;SDS011;62088;50.240;2.696;2024-03-07T14:40:08;30.70;;;19.95;;
73776;SDS011;62088;50.240;2.696;2024-03-07T14:42:42;35.72;;;19.92;;
73776;SDS011;62088;50.240;2.696;2024-03-07T14:47:40;30.67;;;20.08;;
73776;SDS011;62088;50.240;2.696;2024-03-07T14:50:08;31.58;;;22.58;;
73776;SDS011;62088;50.240;2.696;2024-03-07T14:52:37;33.80;;;25.20;;
73776;SDS011;62088;50.240;2.696;2024-03-07T14:55:07;31.60;;;20.73;;
73776;SDS011;62088;50.240;2.696;2024-03-07T14:57:35;34.58;;;24.23;;
73776;SDS011;62088;50.240;2.696;2024-03-07T15:00:02;30.52;;;18.58;;
73776;SDS011;62088;50.240;2.696;2024-03-07T15:02:50;30.85;;;21.10;;
73776;SDS011;62088;50.240;2.696;2024-03-07T15:05:17;33.70;;;19.27;;
73776;SDS011;62088;50.240;2.696;2024-03-07T15:07:46;33.47;;;23.17;;
73776;SDS011;62088;50.240;2.696;2024-03-07T15:10:14;34.50;;;24.25;;
73776;SDS011;62088;50.240;2.696;2024-03-07T15:12:53;30.42;;;17.88;;
73776;SDS011;62088;50.240;2.696;2024-03-07T15:15:20;30.42;;;20.73;;
73776;SDS011;62088;50.240;2.696;2024-03-07T15:17:51;30.77;;;22.58;;
73776;SDS011;62088;50.240;2.696;2024-03-07T15:20:18;30.83;;;17.58;;